Time;durP1;ratioP1;P1;durP2;ratioP2;P2;SDS_P1;SDS_P2;PMS_P1;PMS_P2;Temp;Humidity;BMP_temperature;BMP_pressure;BME280_temperature;BME280_humidity;BME280_pressure;Samples;Min_cycle;Max_cycle;Signal;HPM_P1;HPM_P2
2023/05/04 00:00:07;;;;;;;6.47;3.67;;;;;;;18.29;58.44;100041.06;4490759;31;33378;-64
2023/05/04 00:02:34;;;;;;;6.40;3.45;;;;;;;18.42;58.11;100035.22;4491326;31;34708;-64
2023/05/04 00:05:04;;;;;;;10.18;3.53;;;;;;;18.48;57.99;100034.59;4492120;31;32607;-62
2023/05/04 00:07:32;;;;;;;5.53;2.70;;;;;;;18.49;58.05;100036.31;4490208;31;32827;-62
2023/05/04 00:10:00;;;;;;;5.60;3.20;;;;;;;18.24;58.95;100034.44;4494222;31;33237;-63
2023/05/04 00:12:28;;;;;;;5.60;3.33;;;;;;;18.25;58.91;100031.56;4492375;31;33744;-64
2023/05/04 00:14:55;;;;;;;4.80;3.00;;;;;;;18.29;58.58;100030.22;4491579;31;35234;-63
2023/05/04 00:17:23;;;;;;;5.75;3.55;;;;;;;18.37;58.61;100033.00;4492740;31;34235;-62
2023/05/04 00:19:50;;;;;;;8.10;3.62;;;;;;;18.35;58.76;100023.31;4488840;31;32255;-63
2023/05/04 00:22:18;;;;;;;9.82;3.92;;;;;;;18.49;58.16;100022.78;4485561;31;33818;-65
2023/05/04 00:24:45;;;;;;;4.97;3.17;;;;;;;18.33;58.70;100028.03;4483240;31;33839;-64
2023/05/04 00:27:13;;;;;;;5.28;3.67;;;;;;;18.37;58.49;100022.16;4491767;31;33956;-64
2023/05/04 00:29:40;;;;;;;4.12;2.47;;;;;;;18.48;58.03;100018.34;4487344;31;34170;-64
2023/05/04 00:32:08;;;;;;;5.47;3.50;;;;;;;17.73;60.66;100015.16;4488159;31;35531;-64
2023/05/04 00:34:36;;;;;;;6.75;3.90;;;;;;;17.84;60.00;100011.38;4481854;31;34072;-64
2023/05/04 00:37:05;;;;;;;8.52;3.03;;;;;;;17.66;60.18;100011.38;4496798;31;35057;-62
2023/05/04 00:39:34;;;;;;;4.40;2.85;;;;;;;18.13;58.92;100013.84;4494543;31;34140;-63
2023/05/04 00:42:02;;;;;;;3.12;2.42;;;;;;;18.24;58.61;100019.03;4487628;31;33411;-63
2023/05/04 00:44:29;;;;;;;5.15;2.78;;;;;;;18.23;58.69;100011.88;4490086;31;34142;-63
2023/05/04 00:46:57;;;;;;;3.75;2.03;;;;;;;18.28;58.66;100009.56;4478834;31;33898;-62
2023/05/04 00:49:25;;;;;;;4.45;2.72;;;;;;;18.31;58.45;100020.09;4485811;31;33526;-63
2023/05/04 00:51:54;;;;;;;5.35;2.72;;;;;;;18.23;58.30;100019.16;4484327;31;32467;-67
2023/05/04 00:54:22;;;;;;;6.53;2.62;;;;;;;18.26;58.36;100008.84;4479436;31;33825;-65
2023/05/04 00:56:49;;;;;;;4.28;2.30;;;;;;;18.29;58.13;100011.25;4492234;31;33779;-64
2023/05/04 00:59:17;;;;;;;4.25;2.92;;;;;;;18.26;57.95;100019.69;4492906;31;33367;-64
2023/05/04 01:01:44;;;;;;;5.20;2.78;;;;;;;18.20;58.42;100014.91;4494337;31;33968;-64
2023/05/04 01:04:13;;;;;;;5.43;3.35;;;;;;;18.36;57.91;100011.47;4490528;31;34361;-65
2023/05/04 01:06:46;;;;;;;5.57;3.72;;;;;;;18.47;57.47;100013.09;4480090;31;32928;-64
2023/05/04 01:09:29;;;;;;;7.03;2.60;;;;;;;18.48;57.42;100018.34;4485059;31;33674;-64
2023/05/04 01:12:05;;;;;;;5.62;3.75;;;;;;;18.41;57.78;100009.16;4486567;31;33832;-65
2023/05/04 01:14:34;;;;;;;3.87;2.75;;;;;;;18.46;57.57;100019.50;4482991;31;33632;-64
2023/05/04 01:17:04;;;;;;;5.00;2.87;;;;;;;18.38;57.80;100017.59;4483285;31;35304;-65
2023/05/04 01:19:32;;;;;;;4.78;2.47;;;;;;;18.49;57.39;100011.94;4483564;31;32514;-64
2023/05/04 01:22:02;;;;;;;3.42;2.55;;;;;;;18.38;57.50;100009.47;4494069;31;34013;-64
2023/05/04 01:24:29;;;;;;;6.62;3.70;;;;;;;18.46;57.18;100014.06;4486249;31;34169;-64
2023/05/04 01:27:04;;;;;;;4.32;2.67;;;;;;;18.42;57.20;100005.41;4481038;31;34088;-63
2023/05/04 01:29:59;;;;;;;3.72;2.62;;;;;;;18.47;57.05;100010.37;4477316;31;34795;-64
2023/05/04 01:32:28;;;;;;;5.35;3.05;;;;;;;18.51;56.62;100015.31;4495048;31;33709;-64
2023/05/04 01:34:56;;;;;;;7.28;3.30;;;;;;;18.49;56.63;100017.34;4478157;31;36012;-62
2023/05/04 01:37:24;;;;;;;6.57;4.18;;;;;;;18.50;56.71;100018.19;4480048;31;34080;-62
2023/05/04 01:39:52;;;;;;;4.12;2.80;;;;;;;18.46;56.90;100012.25;4488498;31;34626;-62
2023/05/04 01:42:19;;;;;;;5.45;2.95;;;;;;;18.39;57.22;100017.44;4494325;31;33531;-63
2023/05/04 01:44:47;;;;;;;5.90;2.83;;;;;;;18.46;56.77;100005.94;4494941;31;32828;-66
2023/05/04 01:47:16;;;;;;;4.95;3.47;;;;;;;18.44;56.85;100013.41;4494711;31;33934;-64
2023/05/04 01:49:44;;;;;;;4.97;3.05;;;;;;;18.41;56.79;100006.44;4484594;31;34344;-64
2023/05/04 01:52:12;;;;;;;7.12;3.72;;;;;;;18.38;56.85;100004.88;4491216;31;33627;-64
2023/05/04 01:54:39;;;;;;;6.80;3.50;;;;;;;18.23;57.42;100005.63;4488664;31;34226;-66
2023/05/04 01:57:07;;;;;;;5.03;3.08;;;;;;;18.36;56.85;100009.63;4490444;31;35252;-65
2023/05/04 01:59:34;;;;;;;6.43;3.37;;;;;;;18.41;56.71;100006.44;4485465;31;31876;-66
2023/05/04 02:02:02;;;;;;;7.40;3.47;;;;;;;18.37;57.04;100005.91;4494092;31;33643;-66
2023/05/04 02:04:30;;;;;;;5.12;3.05;;;;;;;18.37;57.11;100007.78;4496861;31;33583;-63
2023/05/04 02:06:57;;;;;;;5.45;3.30;;;;;;;18.39;57.05;100005.75;4491298;31;34155;-63
2023/05/04 02:09:25;;;;;;;6.57;4.10;;;;;;;18.46;56.58;100011.38;4496355;31;33660;-64
2023/05/04 02:11:53;;;;;;;5.50;3.33;;;;;;;18.42;56.62;100010.84;4495940;31;33472;-63
2023/05/04 02:14:21;;;;;;;4.95;3.60;;;;;;;18.41;56.33;100005.59;4495183;31;34075;-62
2023/05/04 02:16:48;;;;;;;5.18;3.40;;;;;;;18.21;56.84;100004.94;4497124;31;35678;-63
2023/05/04 02:19:16;;;;;;;5.95;3.87;;;;;;;18.20;56.88;100008.62;4493233;31;34442;-63
2023/05/04 02:21:44;;;;;;;4.68;3.25;;;;;;;18.11;57.16;100005.88;4495969;31;34792;-63
2023/05/04 02:24:13;;;;;;;4.90;2.92;;;;;;;18.21;57.02;100011.22;4496731;31;33836;-62
2023/05/04 02:26:41;;;;;;;6.82;3.60;;;;;;;18.21;56.62;100002.25;4496351;31;33096;-63
2023/05/04 02:29:08;;;;;;;3.90;2.95;;;;;;;18.18;56.51;100002.56;4495537;31;33531;-62
2023/05/04 02:31:37;;;;;;;4.72;3.60;;;;;;;18.15;56.52;99998.28;4494251;31;34109;-64
2023/05/04 02:34:06;;;;;;;6.78;3.70;;;;;;;18.05;57.10;99994.81;4494626;31;32246;-63
2023/05/04 02:36:33;;;;;;;6.00;3.47;;;;;;;18.13;56.56;99993.00;4493991;31;33136;-62
2023/05/04 02:39:01;;;;;;;7.40;4.45;;;;;;;18.08;56.67;100003.50;4493681;31;33451;-62
2023/05/04 02:41:28;;;;;;;7.80;3.90;;;;;;;17.85;57.37;100002.28;4493170;31;35257;-62
2023/05/04 02:43:56;;;;;;;5.95;3.53;;;;;;;17.87;57.29;100006.50;4494466;31;33927;-62
2023/05/04 02:46:25;;;;;;;6.62;3.97;;;;;;;17.84;57.36;99993.28;4495675;31;35154;-62
2023/05/04 02:48:52;;;;;;;5.35;3.20;;;;;;;17.80;57.47;99994.59;4485575;31;33817;-62
2023/05/04 02:51:20;;;;;;;5.72;3.55;;;;;;;17.66;57.69;100001.38;4489457;31;33663;-63
2023/05/04 02:53:48;;;;;;;7.15;4.00;;;;;;;17.58;57.78;99995.88;4490580;31;32853;-63
2023/05/04 02:56:15;;;;;;;5.90;3.75;;;;;;;17.63;57.68;99998.12;4491638;31;34174;-62
2023/05/04 02:58:43;;;;;;;9.32;4.65;;;;;;;17.49;58.21;100004.06;4496132;31;33362;-62
2023/05/04 03:01:11;;;;;;;5.82;4.22;;;;;;;17.50;58.24;100000.37;4485684;31;33515;-63
2023/05/04 03:03:38;;;;;;;5.45;3.72;;;;;;;17.50;58.15;99995.81;4490837;31;33784;-64
2023/05/04 03:06:06;;;;;;;5.32;2.87;;;;;;;17.45;58.37;100004.38;4495924;31;34810;-63
2023/05/04 03:08:34;;;;;;;8.02;3.75;;;;;;;17.50;58.25;100011.19;4494607;31;33307;-64
2023/05/04 03:11:02;;;;;;;5.68;3.95;;;;;;;17.52;57.95;100001.06;4489006;31;34012;-65
2023/05/04 03:13:29;;;;;;;4.97;3.35;;;;;;;17.58;57.71;100003.16;4482088;31;32581;-65
2023/05/04 03:15:57;;;;;;;9.10;4.40;;;;;;;17.61;57.53;100008.25;4496493;31;34030;-64
2023/05/04 03:18:25;;;;;;;7.87;3.45;;;;;;;17.52;57.88;100004.59;4485586;31;33648;-65
2023/05/04 03:20:53;;;;;;;6.65;4.05;;;;;;;17.58;57.79;100011.28;4493635;31;34770;-64
2023/05/04 03:23:21;;;;;;;9.60;5.22;;;;;;;17.60;57.55;100017.38;4495057;31;34991;-65
2023/05/04 03:25:49;;;;;;;5.65;4.05;;;;;;;17.54;57.67;100013.44;4488814;31;34629;-65
2023/05/04 03:28:16;;;;;;;5.30;3.85;;;;;;;17.56;57.54;100018.69;4496087;31;33590;-65
2023/05/04 03:30:44;;;;;;;7.12;3.33;;;;;;;17.51;57.77;100011.03;4493363;31;34790;-63
2023/05/04 03:33:12;;;;;;;6.35;4.03;;;;;;;17.35;58.22;100018.97;4493114;31;34017;-63
2023/05/04 03:35:39;;;;;;;4.95;3.12;;;;;;;17.46;58.04;100008.78;4495821;31;34117;-63
2023/05/04 03:38:08;;;;;;;7.72;3.97;;;;;;;17.41;58.15;100013.81;4489405;31;33523;-65
2023/05/04 03:40:36;;;;;;;6.65;3.42;;;;;;;17.46;57.80;100018.75;4491775;31;33698;-64
2023/05/04 03:43:04;;;;;;;7.28;4.43;;;;;;;17.42;57.86;100017.34;4492528;31;32701;-64
2023/05/04 03:45:31;;;;;;;4.57;2.97;;;;;;;17.48;57.84;100019.44;4483744;31;34791;-65
2023/05/04 03:47:59;;;;;;;5.43;2.97;;;;;;;17.53;57.59;100025.28;4494765;31;33484;-63
2023/05/04 03:50:27;;;;;;;4.18;3.20;;;;;;;17.54;57.55;100020.72;4492940;31;32401;-62
2023/05/04 03:52:54;;;;;;;5.97;3.50;;;;;;;17.51;57.83;100021.84;4491543;31;35141;-64
2023/05/04 03:55:22;;;;;;;7.20;2.97;;;;;;;17.50;57.85;100014.75;4495902;31;34342;-65
2023/05/04 03:57:50;;;;;;;7.40;4.60;;;;;;;17.46;58.15;100021.44;4494384;31;33479;-65
2023/05/04 04:00:18;;;;;;;3.30;2.55;;;;;;;17.40;58.45;100028.34;4494759;31;33871;-64
2023/05/04 04:02:47;;;;;;;7.50;5.45;;;;;;;17.44;58.28;100029.72;4488934;31;32904;-65
2023/05/04 04:05:15;;;;;;;4.97;3.45;;;;;;;17.37;58.91;100036.75;4495890;31;35519;-64
2023/05/04 04:07:43;;;;;;;7.25;4.07;;;;;;;17.43;58.79;100025.34;4491382;31;33213;-63
2023/05/04 04:10:11;;;;;;;7.28;4.28;;;;;;;16.98;60.47;100031.56;4493669;31;34159;-64
2023/05/04 04:12:38;;;;;;;7.65;4.18;;;;;;;17.36;59.31;100035.03;4491477;31;35826;-64
2023/05/04 04:15:06;;;;;;;8.70;4.78;;;;;;;17.33;59.37;100038.03;4487132;31;35207;-64
2023/05/04 04:17:34;;;;;;;5.68;3.72;;;;;;;17.51;58.86;100031.84;4494874;31;34430;-64
2023/05/04 04:20:02;;;;;;;7.97;3.75;;;;;;;17.45;58.95;100030.56;4486027;31;34801;-62
2023/05/04 04:22:29;;;;;;;6.00;4.07;;;;;;;17.26;59.92;100033.41;4489230;31;196409;-64
2023/05/04 04:24:57;;;;;;;11.30;5.20;;;;;;;17.43;59.33;100036.16;4494875;31;34248;-64
2023/05/04 04:27:25;;;;;;;6.60;4.28;;;;;;;17.56;58.94;100034.91;4486034;31;33129;-64
2023/05/04 04:29:52;;;;;;;8.05;4.65;;;;;;;17.39;60.07;100037.44;4499290;31;33507;-63
2023/05/04 04:32:21;;;;;;;9.00;5.28;;;;;;;17.58;59.62;100038.34;4498553;31;34082;-64
2023/05/04 04:34:49;;;;;;;7.47;4.65;;;;;;;17.77;58.68;100038.22;4490406;31;35419;-63
2023/05/04 04:37:16;;;;;;;6.85;4.87;;;;;;;17.86;58.23;100042.72;4487756;31;33446;-64
2023/05/04 04:39:44;;;;;;;5.70;3.50;;;;;;;17.84;58.71;100039.31;4485589;31;34894;-62
2023/05/04 04:42:12;;;;;;;5.72;3.45;;;;;;;17.83;58.81;100040.31;4483585;31;34111;-63
2023/05/04 04:44:39;;;;;;;7.20;4.60;;;;;;;18.06;58.03;100038.00;4485242;31;33926;-63
2023/05/04 04:47:07;;;;;;;7.57;4.53;;;;;;;18.04;57.86;100039.16;4485751;31;33540;-62
2023/05/04 04:49:34;;;;;;;7.37;3.58;;;;;;;18.26;57.28;100038.66;4498481;31;33642;-62
2023/05/04 04:52:02;;;;;;;5.95;4.32;;;;;;;18.36;57.12;100036.72;4497623;31;34191;-61
2023/05/04 04:54:30;;;;;;;8.60;3.12;;;;;;;18.12;57.84;100050.91;4496210;31;34244;-62
2023/05/04 04:56:58;;;;;;;5.07;2.87;;;;;;;18.23;57.44;100044.37;4486464;31;34698;-63
2023/05/04 04:59:25;;;;;;;6.25;3.62;;;;;;;18.22;57.17;100048.13;4496541;31;32638;-64
2023/05/04 05:01:53;;;;;;;7.20;3.50;;;;;;;17.95;57.70;100051.78;4489229;31;34044;-64
2023/05/04 05:04:21;;;;;;;7.05;3.53;;;;;;;18.25;56.96;100055.09;4489483;31;34143;-64
2023/05/04 05:06:50;;;;;;;4.50;2.80;;;;;;;18.19;57.28;100061.13;4488341;31;34414;-63
2023/05/04 05:09:18;;;;;;;6.60;2.70;;;;;;;18.37;56.93;100060.09;4497519;31;33636;-62
2023/05/04 05:11:45;;;;;;;4.05;2.83;;;;;;;18.59;56.23;100055.19;4492466;31;33954;-62
2023/05/04 05:14:12;;;;;;;3.92;2.25;;;;;;;18.54;56.26;100049.38;4493622;31;33007;-63
2023/05/04 05:16:40;;;;;;;5.07;2.95;;;;;;;18.61;56.19;100050.44;4494603;31;33660;-65
2023/05/04 05:19:08;;;;;;;4.97;2.62;;;;;;;18.45;56.30;100053.87;4495488;31;33609;-64
2023/05/04 05:21:35;;;;;;;4.12;1.87;;;;;;;18.73;55.46;100053.78;4492316;31;32811;-64
2023/05/04 05:24:04;;;;;;;4.25;2.47;;;;;;;18.71;54.94;100061.19;4492799;31;35351;-64
2023/05/04 05:26:32;;;;;;;5.45;2.80;;;;;;;18.57;54.95;100063.47;4492532;31;33441;-65
2023/05/04 05:28:59;;;;;;;4.32;2.37;;;;;;;18.83;54.48;100058.06;4493501;31;32769;-67
2023/05/04 05:31:27;;;;;;;6.70;2.37;;;;;;;18.92;54.22;100058.13;4488904;31;34935;-65
2023/05/04 05:33:54;;;;;;;4.30;1.77;;;;;;;19.09;53.22;100055.34;4497524;31;33922;-66
2023/05/04 05:36:22;;;;;;;1.73;0.95;;;;;;;19.04;52.46;100060.41;4495293;31;34233;-65
2023/05/04 05:38:49;;;;;;;4.35;2.42;;;;;;;19.21;51.58;100055.91;4495863;31;35040;-66
2023/05/04 05:41:17;;;;;;;4.00;2.28;;;;;;;19.14;52.04;100065.72;4493611;31;33661;-66
2023/05/04 05:43:44;;;;;;;3.22;2.28;;;;;;;19.28;52.07;100061.53;4499903;31;33845;-67
2023/05/04 05:46:13;;;;;;;2.22;1.42;;;;;;;19.37;51.76;100059.72;4495088;31;33427;-67
2023/05/04 05:48:41;;;;;;;5.28;2.10;;;;;;;19.36;51.67;100057.97;4495468;31;34017;-67
2023/05/04 05:51:09;;;;;;;5.28;2.45;;;;;;;19.17;50.46;100061.84;4491722;31;35113;-65
2023/05/04 05:53:37;;;;;;;3.28;1.55;;;;;;;19.34;49.65;100065.47;4497374;31;34835;-64
2023/05/04 05:56:05;;;;;;;3.33;2.17;;;;;;;19.19;50.79;100067.94;4498862;31;34488;-63
2023/05/04 05:58:32;;;;;;;3.20;2.28;;;;;;;19.45;49.88;100073.28;4486788;31;33372;-65
2023/05/04 06:01:00;;;;;;;4.32;2.33;;;;;;;19.62;49.42;100069.62;4490688;31;33657;-63
2023/05/04 06:03:28;;;;;;;2.83;1.58;;;;;;;19.52;49.62;100071.66;4489440;31;34672;-63
2023/05/04 06:05:55;;;;;;;3.37;1.95;;;;;;;19.61;48.71;100067.06;4493173;31;33738;-63
2023/05/04 06:08:23;;;;;;;2.37;1.55;;;;;;;19.68;48.08;100063.59;4487317;31;34429;-62
2023/05/04 06:10:51;;;;;;;2.90;1.60;;;;;;;19.69;47.71;100078.00;4489524;31;33919;-63
2023/05/04 06:13:18;;;;;;;3.65;2.15;;;;;;;19.72;47.71;100064.94;4497225;31;35188;-64
2023/05/04 06:15:51;;;;;;;4.10;2.20;;;;;;;19.71;47.26;100068.69;4488166;31;34407;-68
2023/05/04 06:18:19;;;;;;;2.62;1.48;;;;;;;19.63;47.42;100074.03;4494257;31;33688;-65
2023/05/04 06:20:47;;;;;;;7.12;1.90;;;;;;;19.76;46.77;100071.72;4498134;31;33893;-64
2023/05/04 06:23:15;;;;;;;2.20;1.52;;;;;;;19.91;46.78;100065.66;4498318;31;34235;-66
2023/05/04 06:25:43;;;;;;;4.00;1.58;;;;;;;19.95;47.11;100075.16;4498839;31;33367;-66
2023/05/04 06:28:10;;;;;;;12.25;2.20;;;;;;;20.06;45.93;100077.56;4493689;31;35052;-66
2023/05/04 06:30:37;;;;;;;3.40;1.73;;;;;;;20.17;44.76;100076.41;4497720;31;33364;-68
2023/05/04 06:33:05;;;;;;;2.47;1.50;;;;;;;20.29;44.88;100079.59;4494272;31;34425;-67
2023/05/04 06:35:33;;;;;;;3.70;1.90;;;;;;;19.97;44.86;100079.44;4490202;31;33077;-66
2023/05/04 06:38:00;;;;;;;5.53;2.25;;;;;;;20.19;44.39;100088.81;4495412;31;32502;-66
2023/05/04 06:40:28;;;;;;;2.35;1.33;;;;;;;20.21;44.17;100089.47;4489969;31;35329;-66
2023/05/04 06:42:56;;;;;;;3.60;2.17;;;;;;;20.00;43.43;100089.13;4496930;31;34317;-66
2023/05/04 06:45:24;;;;;;;3.95;2.12;;;;;;;19.91;43.67;100090.97;4494527;31;33328;-65
2023/05/04 06:47:52;;;;;;;3.70;2.15;;;;;;;20.18;43.99;100088.94;4492584;31;33817;-67
2023/05/04 06:50:19;;;;;;;2.25;1.35;;;;;;;20.27;44.12;100092.53;4492443;31;34148;-66
2023/05/04 06:52:47;;;;;;;2.75;1.85;;;;;;;20.36;43.47;100083.38;4492356;31;34015;-67
2023/05/04 06:55:14;;;;;;;2.62;1.58;;;;;;;19.86;43.70;100087.03;4492022;31;33608;-67
2023/05/04 06:57:42;;;;;;;5.15;2.35;;;;;;;20.22;44.25;100084.87;4498962;31;33588;-66
2023/05/04 07:00:10;;;;;;;3.45;1.60;;;;;;;20.31;43.68;100085.72;4495943;31;34911;-67
2023/05/04 07:02:38;;;;;;;2.78;1.77;;;;;;;20.47;42.76;100086.56;4491349;31;33674;-64
2023/05/04 07:05:05;;;;;;;2.60;1.70;;;;;;;20.58;41.90;100093.59;4488968;31;32561;-64
2023/05/04 07:07:33;;;;;;;1.48;1.12;;;;;;;19.46;44.90;100097.56;4493883;31;33941;-65
2023/05/04 07:10:01;;;;;;;3.10;1.20;;;;;;;20.01;44.35;100096.25;4486478;31;33621;-65
2023/05/04 07:12:28;;;;;;;2.97;1.55;;;;;;;20.33;43.47;100089.16;4489059;31;35286;-64
2023/05/04 07:14:56;;;;;;;2.78;1.50;;;;;;;18.97;46.51;100096.47;4497384;31;33738;-64
2023/05/04 07:17:24;;;;;;;3.53;1.70;;;;;;;20.23;43.70;100092.88;4496885;31;33860;-63
2023/05/04 07:19:52;;;;;;;2.83;1.55;;;;;;;20.38;44.83;100094.91;4493830;31;34199;-64
2023/05/04 07:22:19;;;;;;;2.75;1.77;;;;;;;20.58;43.27;100090.03;4496911;31;34092;-65
2023/05/04 07:24:47;;;;;;;2.80;1.87;;;;;;;20.83;42.45;100093.53;4494566;31;34815;-63
2023/05/04 07:27:15;;;;;;;4.10;1.75;;;;;;;20.68;42.39;100091.53;4495519;31;34710;-66
2023/05/04 07:29:42;;;;;;;3.67;2.10;;;;;;;20.85;42.11;100089.62;4488808;31;34001;-64
2023/05/04 07:32:10;;;;;;;2.58;1.55;;;;;;;21.11;41.85;100094.84;4491716;31;34916;-64
2023/05/04 07:34:38;;;;;;;3.80;1.75;;;;;;;21.07;41.07;100088.06;4494129;31;34128;-64
2023/05/04 07:37:14;;;;;;;2.70;1.45;;;;;;;20.86;41.83;100090.47;4496725;31;33990;-66
2023/05/04 07:39:41;;;;;;;4.30;1.80;;;;;;;21.28;41.18;100090.19;4491169;31;33932;-62
2023/05/04 07:42:10;;;;;;;2.35;1.73;;;;;;;21.23;41.34;100091.75;4495845;31;34854;-65
2023/05/04 07:44:38;;;;;;;3.22;1.52;;;;;;;21.50;41.46;100094.06;4491461;31;33943;-64
2023/05/04 07:47:06;;;;;;;2.42;1.52;;;;;;;21.48;40.37;100090.69;4491069;31;34754;-66
2023/05/04 07:49:33;;;;;;;1.92;1.27;;;;;;;21.24;40.46;100093.44;4489535;31;34282;-64
2023/05/04 07:52:03;;;;;;;3.20;1.45;;;;;;;20.91;40.49;100094.37;4498790;31;34784;-63
2023/05/04 07:54:30;;;;;;;3.55;1.42;;;;;;;21.23;40.76;100086.31;4487483;31;33535;-64
2023/05/04 07:57:01;;;;;;;4.32;1.37;;;;;;;21.65;40.43;100086.00;4486299;31;35068;-65
2023/05/04 07:59:29;;;;;;;3.37;1.17;;;;;;;21.18;40.20;100087.66;4491670;31;35062;-65
2023/05/04 08:01:57;;;;;;;3.72;1.83;;;;;;;20.90;41.26;100092.69;4490543;31;34175;-64
2023/05/04 08:04:24;;;;;;;2.62;1.42;;;;;;;21.03;40.39;100086.72;4491310;31;33625;-63
2023/05/04 08:06:52;;;;;;;2.65;1.73;;;;;;;20.78;41.32;100080.47;4484136;31;35106;-66
2023/05/04 08:09:19;;;;;;;2.17;1.70;;;;;;;21.42;39.95;100087.81;4490395;31;34208;-64
2023/05/04 08:11:48;;;;;;;6.75;2.15;;;;;;;21.68;40.68;100084.81;4491267;31;33790;-64
2023/05/04 08:14:15;;;;;;;3.67;1.85;;;;;;;21.90;40.38;100084.00;4489510;31;34515;-62
2023/05/04 08:16:43;;;;;;;2.75;1.65;;;;;;;22.16;40.40;100085.56;4483738;31;33840;-62
2023/05/04 08:19:11;;;;;;;13.68;1.80;;;;;;;22.07;40.49;100084.72;4492680;31;34557;-62
2023/05/04 08:21:39;;;;;;;2.90;1.83;;;;;;;22.61;39.23;100090.12;4496968;31;32744;-64
2023/05/04 08:24:07;;;;;;;2.92;1.42;;;;;;;22.75;38.13;100097.47;4493062;31;33501;-66
2023/05/04 08:26:37;;;;;;;2.92;2.00;;;;;;;22.42;38.36;100099.66;4492028;31;32655;-64
2023/05/04 08:29:06;;;;;;;3.53;1.73;;;;;;;22.33;39.62;100098.03;4494294;31;35154;-64
2023/05/04 08:31:34;;;;;;;4.87;2.15;;;;;;;22.26;39.29;100099.78;4496396;31;34949;-65
2023/05/04 08:34:02;;;;;;;3.62;1.30;;;;;;;22.77;38.38;100103.62;4495815;31;34380;-65
2023/05/04 08:36:30;;;;;;;2.60;1.60;;;;;;;22.48;38.80;100100.81;4498268;31;33646;-66
2023/05/04 08:39:00;;;;;;;2.47;1.73;;;;;;;22.62;38.19;100104.59;4490740;31;33383;-64
2023/05/04 08:41:28;;;;;;;6.87;2.03;;;;;;;23.17;37.29;100104.25;4498249;31;33779;-64
2023/05/04 08:43:57;;;;;;;3.78;2.10;;;;;;;23.24;39.24;100098.88;4482924;31;34682;-64
2023/05/04 08:46:29;;;;;;;3.65;1.90;;;;;;;22.59;37.79;100099.53;4488575;31;32822;-64
2023/05/04 08:48:57;;;;;;;8.15;2.78;;;;;;;22.93;37.66;100108.09;4497107;31;35489;-63
2023/05/04 08:51:25;;;;;;;3.55;1.83;;;;;;;22.68;38.92;100098.41;4491641;31;35289;-65
2023/05/04 08:53:52;;;;;;;6.75;2.58;;;;;;;22.17;38.37;100096.25;4494692;31;33899;-65
2023/05/04 08:56:21;;;;;;;4.15;1.87;;;;;;;22.78;37.54;100093.53;4485078;31;33717;-64
2023/05/04 08:58:50;;;;;;;2.90;1.90;;;;;;;22.69;37.97;100092.75;4481064;31;35019;-64
2023/05/04 09:01:18;;;;;;;4.75;2.80;;;;;;;22.38;38.57;100095.63;4486112;31;34283;-64
2023/05/04 09:03:46;;;;;;;3.87;2.33;;;;;;;23.12;37.47;100092.22;4493285;31;33654;-63
2023/05/04 09:06:14;;;;;;;2.80;1.67;;;;;;;23.02;37.44;100098.78;4495152;31;34043;-63
2023/05/04 09:08:42;;;;;;;2.53;1.58;;;;;;;23.13;37.22;100094.75;4490004;31;33968;-62
2023/05/04 09:11:09;;;;;;;4.22;1.95;;;;;;;23.18;37.09;100095.03;4496737;31;34928;-61
2023/05/04 09:13:37;;;;;;;4.00;2.58;;;;;;;23.02;38.79;100095.22;4497008;31;33344;-63
2023/05/04 09:16:06;;;;;;;5.28;3.17;;;;;;;22.09;41.37;100093.56;4491381;31;33791;-65
2023/05/04 09:18:43;;;;;;;6.15;3.85;;;;;;;22.16;41.97;100101.91;4489696;31;33922;-65
2023/05/04 09:21:11;;;;;;;4.10;2.75;;;;;;;22.48;40.50;100093.47;4489721;31;33925;-64
2023/05/04 09:23:46;;;;;;;2.67;1.75;;;;;;;22.64;39.96;100094.37;4496109;31;33358;-64
2023/05/04 09:26:14;;;;;;;5.05;1.92;;;;;;;22.76;39.47;100095.59;4487645;31;33797;-63
2023/05/04 09:28:42;;;;;;;4.55;1.62;;;;;;;22.52;40.62;100099.41;4480909;31;32601;-62
2023/05/04 09:31:10;;;;;;;3.33;2.00;;;;;;;22.60;39.27;100087.56;4485569;31;33999;-64
2023/05/04 09:33:38;;;;;;;3.25;1.55;;;;;;;22.09;40.39;100090.84;4492301;31;33348;-62
2023/05/04 09:36:16;;;;;;;4.05;2.62;;;;;;;22.42;39.54;100085.19;4486867;31;32669;-63
2023/05/04 09:38:44;;;;;;;3.85;2.10;;;;;;;22.82;38.45;100096.75;4490216;31;32705;-62
2023/05/04 09:41:12;;;;;;;3.62;2.45;;;;;;;22.91;38.80;100085.56;4495885;31;35035;-63
2023/05/04 09:43:40;;;;;;;4.80;2.28;;;;;;;23.32;37.41;100085.13;4489169;31;32138;-63
2023/05/04 09:46:18;;;;;;;12.05;2.20;;;;;;;23.27;37.59;100086.72;4493275;31;34066;-63
2023/05/04 09:48:53;;;;;;;4.87;2.30;;;;;;;22.91;37.67;100081.97;4495089;31;34066;-62
2023/05/04 09:51:23;;;;;;;7.03;3.87;;;;;;;23.29;36.81;100079.22;4494051;31;35311;-63
2023/05/04 09:53:51;;;;;;;5.40;3.05;;;;;;;23.33;37.83;100091.44;4489534;31;34025;-64
2023/05/04 09:56:30;;;;;;;7.07;3.50;;;;;;;23.38;38.93;100081.66;4488673;31;33394;-63
2023/05/04 09:58:58;;;;;;;5.12;3.17;;;;;;;22.95;40.96;100076.03;4488908;31;33852;-63
2023/05/04 10:01:29;;;;;;;7.75;4.25;;;;;;;22.84;42.46;100079.16;4485571;31;33984;-62
2023/05/04 10:03:57;;;;;;;7.47;4.57;;;;;;;23.23;41.72;100080.81;4498614;31;33702;-63
2023/05/04 10:06:27;;;;;;;8.18;4.50;;;;;;;22.85;42.91;100072.66;4489305;31;33668;-62
2023/05/04 10:08:55;;;;;;;9.00;5.15;;;;;;;22.85;41.85;100069.09;4494425;31;33365;-63
2023/05/04 10:11:24;;;;;;;8.68;5.15;;;;;;;22.21;43.25;100069.47;4482930;31;33939;-63
2023/05/04 10:13:55;;;;;;;6.93;4.20;;;;;;;22.30;43.32;100063.78;4492318;31;33397;-61
2023/05/04 10:16:33;;;;;;;6.85;4.65;;;;;;;22.36;44.02;100067.66;4490400;31;34157;-61
2023/05/04 10:19:10;;;;;;;9.23;4.75;;;;;;;22.63;41.64;100058.06;4480859;31;34754;-61
2023/05/04 10:22:07;;;;;;;5.85;3.97;;;;;;;23.08;41.26;100056.25;4484713;31;34139;-63
2023/05/04 10:24:56;;;;;;;6.20;3.90;;;;;;;23.14;40.52;100060.09;4457216;31;32788;-61
2023/05/04 10:27:45;;;;;;;7.95;4.15;;;;;;;22.74;40.62;100060.31;4484507;31;33570;-63
2023/05/04 10:30:14;;;;;;;5.68;3.53;;;;;;;23.09;40.57;100057.94;4487382;31;34248;-63
2023/05/04 10:32:42;;;;;;;12.63;4.07;;;;;;;22.95;40.87;100050.56;4481113;31;33796;-64
2023/05/04 10:35:10;;;;;;;6.43;3.70;;;;;;;23.22;40.19;100043.63;4490526;31;34479;-62
2023/05/04 10:37:37;;;;;;;6.03;3.67;;;;;;;22.75;40.97;100048.38;4496001;31;34016;-62
2023/05/04 10:40:06;;;;;;;5.05;2.97;;;;;;;22.99;40.42;100046.47;4496054;31;33715;-62
2023/05/04 10:42:41;;;;;;;5.28;2.55;;;;;;;23.54;39.26;100049.72;4496457;31;34061;-63
2023/05/04 10:45:09;;;;;;;;;;;;;;;23.13;39.63;100040.13;4493155;31;32199;-63
2023/05/04 10:47:39;;;;;;;5.07;3.00;;;;;;;23.60;38.33;100043.47;4487747;31;35236;-63
2023/05/04 10:50:12;;;;;;;4.00;2.53;;;;;;;22.53;39.37;100036.47;4494372;31;32434;-62
2023/05/04 10:52:49;;;;;;;6.85;4.00;;;;;;;22.62;39.09;100039.97;4484751;31;33756;-62
2023/05/04 10:55:17;;;;;;;8.68;3.28;;;;;;;23.21;38.85;100037.31;4490737;31;34690;-62
2023/05/04 10:57:56;;;;;;;6.85;4.12;;;;;;;23.73;37.20;100027.25;4484750;31;34416;-62
2023/05/04 11:00:36;;;;;;;5.60;2.90;;;;;;;23.78;36.83;100022.03;4494529;31;34982;-62
2023/05/04 11:03:06;;;;;;;6.60;3.17;;;;;;;24.04;36.97;100023.37;4491133;31;34983;-63
2023/05/04 11:05:44;;;;;;;7.15;3.55;;;;;;;24.17;36.70;100018.00;4493501;31;33206;-63
2023/05/04 11:08:18;;;;;;;6.55;3.65;;;;;;;23.61;37.19;100017.84;4491882;31;33882;-63
2023/05/04 11:11:01;;;;;;;6.22;3.90;;;;;;;23.60;37.38;100010.69;4493328;31;35088;-64
2023/05/04 11:13:32;;;;;;;4.60;3.00;;;;;;;24.52;36.14;100010.75;4493212;31;34149;-64
2023/05/04 11:16:00;;;;;;;7.32;3.85;;;;;;;23.93;37.98;100008.34;4491115;31;33360;-63
2023/05/04 11:18:29;;;;;;;5.25;2.72;;;;;;;23.68;37.88;100005.09;4491288;31;32251;-62
2023/05/04 11:20:57;;;;;;;6.40;3.50;;;;;;;24.02;37.79;100000.84;4497407;31;33716;-62
2023/05/04 11:23:25;;;;;;;8.55;3.45;;;;;;;24.42;37.69;99995.75;4494494;31;34537;-62
2023/05/04 11:25:53;;;;;;;7.43;4.55;;;;;;;24.06;38.38;99988.47;4497214;31;33201;-64
2023/05/04 11:28:34;;;;;;;7.28;3.65;;;;;;;23.88;39.51;99989.81;4483295;31;33571;-62
2023/05/04 11:31:16;;;;;;;7.37;5.07;;;;;;;23.56;41.02;99998.44;4489270;31;33937;-64
2023/05/04 11:33:48;;;;;;;7.97;4.65;;;;;;;23.39;40.96;99997.81;4497185;31;33927;-63